createdAt,value
2018-10-05T00:00:10.569Z,99.90
2018-10-05T00:02:38.145Z,99.90
2018-10-05T00:05:05.817Z,99.90
2018-10-05T00:07:33.401Z,99.90
2018-10-05T00:10:00.972Z,99.90
2018-10-05T00:12:28.581Z,99.90
2018-10-05T00:14:56.709Z,99.90
2018-10-05T00:17:24.677Z,99.90
2018-10-05T00:19:52.248Z,99.90
2018-10-05T00:22:19.904Z,99.90
2018-10-05T00:24:47.654Z,99.90
2018-10-05T00:27:16.398Z,99.90
2018-10-05T00:29:43.980Z,99.90
2018-10-05T00:32:11.574Z,99.90
2018-10-05T00:34:39.133Z,99.90
2018-10-05T00:37:06.742Z,99.90
2018-10-05T00:39:34.313Z,99.90
2018-10-05T00:42:01.907Z,99.90
2018-10-05T00:44:29.489Z,99.90
2018-10-05T00:46:57.416Z,99.90
2018-10-05T00:49:25.265Z,99.90
2018-10-05T00:51:52.854Z,99.90
2018-10-05T00:54:20.432Z,99.90
2018-10-05T00:56:48.025Z,99.90
2018-10-05T00:59:15.609Z,99.90
2018-10-05T01:01:43.256Z,99.90
2018-10-05T01:04:10.988Z,99.90
2018-10-05T01:06:38.613Z,99.90
2018-10-05T01:09:07.134Z,99.90
2018-10-05T01:11:34.751Z,99.90
2018-10-05T01:14:02.389Z,99.90
2018-10-05T01:16:30.014Z,99.90
2018-10-05T01:18:57.630Z,99.90
2018-10-05T01:21:25.542Z,99.90
2018-10-05T01:23:53.117Z,99.90
2018-10-05T01:26:20.695Z,99.90
2018-10-05T01:28:48.289Z,99.90
2018-10-05T01:31:15.873Z,99.90
2018-10-05T01:33:43.457Z,99.90
2018-10-05T01:36:11.194Z,99.90
2018-10-05T01:38:38.804Z,99.90
2018-10-05T01:41:06.445Z,99.90
2018-10-05T01:43:34.036Z,99.90
2018-10-05T01:46:01.714Z,99.90
2018-10-05T01:48:29.324Z,99.90
2018-10-05T01:50:56.893Z,99.90
2018-10-05T01:53:24.505Z,99.90
2018-10-05T01:55:52.108Z,99.90
2018-10-05T01:58:20.666Z,99.90
2018-10-05T02:00:48.606Z,99.90
2018-10-05T02:03:16.247Z,99.90
2018-10-05T02:05:43.797Z,99.90
2018-10-05T02:08:11.432Z,99.90
2018-10-05T02:10:39.664Z,99.90
2018-10-05T02:13:07.316Z,99.90
2018-10-05T02:15:35.166Z,99.90
2018-10-05T02:18:03.325Z,99.90
2018-10-05T02:20:30.905Z,99.90
2018-10-05T02:22:58.480Z,99.90
2018-10-05T02:25:26.034Z,99.90
2018-10-05T02:27:53.893Z,99.90
2018-10-05T02:30:21.469Z,99.90
2018-10-05T02:32:49.128Z,99.90
2018-10-05T02:35:16.827Z,99.90
2018-10-05T02:37:45.041Z,99.90
2018-10-05T02:40:12.616Z,99.90
2018-10-05T02:42:40.222Z,99.90
2018-10-05T02:45:07.813Z,99.90
2018-10-05T02:47:35.389Z,99.90
2018-10-05T02:50:03.611Z,99.90
2018-10-05T02:52:31.732Z,99.90
2018-10-05T02:54:59.301Z,99.90
2018-10-05T02:57:26.917Z,99.90
2018-10-05T02:59:54.498Z,99.90
2018-10-05T03:02:32.989Z,99.90
2018-10-05T03:05:01.486Z,99.90
2018-10-05T03:07:30.126Z,99.90
2018-10-05T03:09:58.765Z,99.90
2018-10-05T03:12:26.518Z,99.90
2018-10-05T03:14:54.103Z,99.90
2018-10-05T03:17:21.674Z,99.90
2018-10-05T03:19:49.357Z,99.90
2018-10-05T03:22:16.865Z,99.90
2018-10-05T03:24:44.492Z,99.90
2018-10-05T03:27:12.078Z,99.90
2018-10-05T03:29:39.674Z,99.90
2018-10-05T03:32:07.265Z,99.90
2018-10-05T03:34:34.862Z,99.90
2018-10-05T03:37:02.424Z,99.90
2018-10-05T03:39:33.845Z,99.90
2018-10-05T03:42:01.753Z,99.90
2018-10-05T03:44:29.347Z,99.90
2018-10-05T03:46:56.933Z,99.90
2018-10-05T03:49:24.525Z,99.90
2018-10-05T03:51:52.187Z,99.90
2018-10-05T03:54:19.753Z,99.90
2018-10-05T03:56:47.392Z,99.90
2018-10-05T03:59:14.970Z,99.90
2018-10-05T04:01:43.465Z,99.90
2018-10-05T04:04:11.122Z,99.90
2018-10-05T04:06:38.721Z,99.90
2018-10-05T04:09:07.836Z,99.90
2018-10-05T04:11:35.457Z,99.90
2018-10-05T04:14:03.149Z,99.90
2018-10-05T04:16:30.730Z,99.90
2018-10-05T04:18:58.377Z,99.90
2018-10-05T04:21:25.941Z,99.90
2018-10-05T04:23:53.587Z,99.90
2018-10-05T04:26:21.154Z,99.90
2018-10-05T04:28:48.770Z,99.90
2018-10-05T04:31:17.322Z,99.90
2018-10-05T04:33:44.999Z,99.90
2018-10-05T04:36:12.850Z,99.90
2018-10-05T04:38:40.441Z,99.90
2018-10-05T04:41:08.074Z,99.90
2018-10-05T04:43:35.708Z,99.90
2018-10-05T04:46:04.692Z,99.90
2018-10-05T04:48:32.360Z,99.90
2018-10-05T04:51:00.025Z,99.90
2018-10-05T04:53:27.826Z,99.90
2018-10-05T04:55:55.406Z,99.90
2018-10-05T04:58:22.966Z,99.90
2018-10-05T05:00:50.546Z,99.90
2018-10-05T05:03:18.119Z,99.90
2018-10-05T05:05:45.704Z,99.90
2018-10-05T05:08:13.333Z,99.90
2018-10-05T05:10:40.957Z,99.90
2018-10-05T05:13:08.542Z,99.90
2018-10-05T05:15:37.484Z,99.90
2018-10-05T05:18:05.197Z,99.90
2018-10-05T05:20:32.794Z,99.90
2018-10-05T05:23:00.914Z,99.90
2018-10-05T05:25:28.493Z,99.90
2018-10-05T05:27:56.089Z,99.90
2018-10-05T05:30:23.713Z,99.90
2018-10-05T05:32:51.337Z,99.90
2018-10-05T05:35:18.913Z,99.90
2018-10-05T05:37:46.473Z,99.90
2018-10-05T05:40:14.160Z,99.90
2018-10-05T05:42:41.717Z,99.90
2018-10-05T05:45:09.925Z,99.90
2018-10-05T05:47:37.645Z,99.90
2018-10-05T05:50:05.325Z,99.90
2018-10-05T05:52:32.881Z,99.90
2018-10-05T05:55:01.093Z,99.90
2018-10-05T05:57:28.831Z,99.90
2018-10-05T05:59:56.413Z,99.90
2018-10-05T06:02:24.026Z,99.90
2018-10-05T06:04:51.751Z,99.90
2018-10-05T06:07:19.349Z,99.90
2018-10-05T06:09:46.930Z,99.90
2018-10-05T06:12:14.630Z,99.90
2018-10-05T06:14:42.245Z,99.90
2018-10-05T06:17:09.885Z,99.90
2018-10-05T06:19:37.913Z,99.90
2018-10-05T06:22:06.142Z,99.90
2018-10-05T06:24:34.666Z,99.90
2018-10-05T06:27:02.301Z,99.90
2018-10-05T06:29:29.876Z,99.90
2018-10-05T06:31:57.900Z,99.90
2018-10-05T06:34:25.482Z,99.90
2018-10-05T06:36:53.080Z,99.90
2018-10-05T06:39:20.648Z,99.90
2018-10-05T06:41:48.229Z,99.90
2018-10-05T06:44:15.813Z,99.90
2018-10-05T06:46:43.404Z,99.90
2018-10-05T06:49:10.944Z,99.90
2018-10-05T06:51:38.717Z,99.90
2018-10-05T06:54:06.354Z,99.90
2018-10-05T06:56:33.912Z,99.90
2018-10-05T06:59:01.482Z,99.90
2018-10-05T07:01:29.214Z,99.90
2018-10-05T07:03:56.716Z,99.90
2018-10-05T07:06:24.302Z,99.90
2018-10-05T07:08:51.852Z,99.90
2018-10-05T07:11:19.500Z,99.90
2018-10-05T07:13:47.043Z,99.90
2018-10-05T07:16:14.674Z,99.90
2018-10-05T07:18:42.237Z,99.90
2018-10-05T07:21:11.020Z,99.90
2018-10-05T07:23:38.592Z,99.90
2018-10-05T07:26:06.425Z,99.90
2018-10-05T07:28:34.222Z,99.90
2018-10-05T07:31:01.605Z,99.90
2018-10-05T07:33:29.184Z,99.90
2018-10-05T07:35:56.962Z,99.90
2018-10-05T07:38:24.533Z,99.90
2018-10-05T07:40:52.116Z,99.90
2018-10-05T07:43:19.810Z,99.90
2018-10-05T07:45:47.439Z,99.90
2018-10-05T07:48:15.017Z,99.90
2018-10-05T07:50:42.729Z,99.90
2018-10-05T07:53:10.305Z,99.90
2018-10-05T07:55:37.876Z,99.90
2018-10-05T07:58:05.451Z,99.90
2018-10-05T08:00:33.014Z,99.90
2018-10-05T08:03:00.598Z,99.90
2018-10-05T08:05:28.152Z,99.90
2018-10-05T08:07:55.722Z,99.90
2018-10-05T08:10:23.309Z,99.90
2018-10-05T08:12:50.888Z,99.90
2018-10-05T08:15:18.445Z,99.90
2018-10-05T08:17:46.727Z,99.90
2018-10-05T08:20:14.763Z,99.90
2018-10-05T08:22:42.525Z,99.90
2018-10-05T08:25:10.981Z,99.90
2018-10-05T08:27:38.614Z,99.90
2018-10-05T08:30:06.569Z,99.90
2018-10-05T08:32:35.250Z,99.90
2018-10-05T08:35:02.921Z,99.90
2018-10-05T08:37:30.545Z,99.90
2018-10-05T08:39:58.199Z,99.90
2018-10-05T08:42:25.709Z,99.90
2018-10-05T08:44:53.267Z,99.90
2018-10-05T08:47:20.972Z,99.90
2018-10-05T08:49:48.529Z,99.90
2018-10-05T08:52:16.202Z,99.90
2018-10-05T08:54:43.717Z,99.90
2018-10-05T08:57:12.126Z,99.90
2018-10-05T08:59:40.265Z,99.90
2018-10-05T09:02:07.958Z,99.90
2018-10-05T09:04:35.528Z,99.90
2018-10-05T09:07:03.145Z,99.90
2018-10-05T09:09:30.724Z,99.90
2018-10-05T09:11:58.304Z,99.90
2018-10-05T09:14:25.961Z,99.90
2018-10-05T09:16:53.528Z,99.90
2018-10-05T09:19:21.097Z,99.90
2018-10-05T09:21:48.914Z,99.90
2018-10-05T09:24:16.676Z,99.90
2018-10-05T09:26:44.321Z,99.90
2018-10-05T09:29:11.925Z,99.90
2018-10-05T09:31:41.586Z,99.90
2018-10-05T09:34:09.231Z,99.90
2018-10-05T09:36:36.778Z,99.90
2018-10-05T09:39:05.568Z,99.90
2018-10-05T09:41:33.132Z,99.90
2018-10-05T09:44:00.882Z,99.90
2018-10-05T09:46:28.469Z,99.90
2018-10-05T09:48:59.553Z,99.90
2018-10-05T09:51:27.200Z,99.90
2018-10-05T09:53:55.572Z,99.90
2018-10-05T09:56:23.217Z,99.90
2018-10-05T09:58:50.921Z,99.90
2018-10-05T10:01:25.032Z,99.90
2018-10-05T10:03:52.629Z,99.90
2018-10-05T10:06:20.180Z,99.90
2018-10-05T10:08:47.818Z,99.90
2018-10-05T10:14:14.398Z,99.90
2018-10-05T10:16:41.957Z,99.90
2018-10-05T10:19:09.525Z,99.90
2018-10-05T10:21:37.069Z,99.90
2018-10-05T10:24:04.641Z,99.90
2018-10-05T10:26:32.213Z,99.90
2018-10-05T10:28:59.799Z,99.90
2018-10-05T10:31:27.343Z,98.70
2018-10-05T10:33:54.954Z,99.10
2018-10-05T10:36:22.529Z,98.70
2018-10-05T10:38:50.297Z,98.40
2018-10-05T10:41:18.457Z,97.90
2018-10-05T10:43:46.097Z,97.80
2018-10-05T10:46:13.707Z,97.90
2018-10-05T10:48:41.276Z,97.60
2018-10-05T10:51:08.902Z,97.20
2018-10-05T10:53:36.475Z,97.30
2018-10-05T10:56:04.030Z,97.20
2018-10-05T10:58:31.619Z,96.90
2018-10-05T11:00:59.180Z,96.60
2018-10-05T11:03:26.742Z,95.50
2018-10-05T11:05:54.302Z,94.40
2018-10-05T11:08:21.881Z,93.10
2018-10-05T11:10:50.861Z,92.90
2018-10-05T11:13:18.433Z,92.70
2018-10-05T11:15:45.982Z,92.20
2018-10-05T11:18:13.805Z,92.80
2018-10-05T11:20:41.329Z,91.70
2018-10-05T11:23:08.921Z,91.90
2018-10-05T11:25:36.483Z,91.90
2018-10-05T11:28:04.074Z,92.60
2018-10-05T11:30:31.660Z,92.90
2018-10-05T11:32:59.209Z,92.60
2018-10-05T11:35:26.869Z,93.00
2018-10-05T11:37:54.421Z,92.40
2018-10-05T11:40:21.989Z,91.80
2018-10-05T11:42:49.670Z,91.90
2018-10-05T11:45:17.345Z,91.70
2018-10-05T11:47:44.899Z,91.40
2018-10-05T11:50:12.505Z,91.30
2018-10-05T11:52:40.082Z,85.70
2018-10-05T11:55:07.702Z,83.40
2018-10-05T11:57:35.262Z,85.20
2018-10-05T12:00:02.988Z,88.00
2018-10-05T12:02:30.579Z,80.50
2018-10-05T12:04:58.152Z,78.60
2018-10-05T12:07:26.562Z,76.90
2018-10-05T12:09:54.125Z,78.60
2018-10-05T12:12:21.719Z,77.50
2018-10-05T12:14:49.321Z,75.80
2018-10-05T12:17:16.865Z,75.60
2018-10-05T12:19:44.446Z,75.70
2018-10-05T12:22:12.023Z,76.90
2018-10-05T12:24:39.629Z,77.30
2018-10-05T12:27:07.218Z,75.30
2018-10-05T12:29:34.796Z,75.50
2018-10-05T12:32:02.364Z,73.20
2018-10-05T12:34:29.949Z,73.10
2018-10-05T12:36:57.493Z,73.90
2018-10-05T12:39:25.060Z,74.10
2018-10-05T12:41:52.703Z,74.20
2018-10-05T12:44:20.442Z,75.80
2018-10-05T12:46:48.035Z,76.10
2018-10-05T12:49:15.634Z,76.20
2018-10-05T12:51:43.170Z,75.40
2018-10-05T12:54:10.766Z,75.10
2018-10-05T12:56:38.335Z,72.70
2018-10-05T12:59:06.749Z,73.10
2018-10-05T13:01:34.342Z,74.00
2018-10-05T13:04:01.891Z,73.80
2018-10-05T13:06:29.477Z,73.70
2018-10-05T13:08:57.113Z,72.90
2018-10-05T13:11:24.672Z,73.00
2018-10-05T13:13:52.267Z,72.00
2018-10-05T13:16:20.663Z,72.60
2018-10-05T13:18:48.250Z,72.50
2018-10-05T13:21:15.822Z,71.70
2018-10-05T13:23:43.366Z,71.90
2018-10-05T13:26:10.953Z,71.80
2018-10-05T13:31:06.409Z,69.20
2018-10-05T13:33:34.845Z,68.90
2018-10-05T13:36:02.450Z,69.50
2018-10-05T13:38:29.988Z,67.40
2018-10-05T13:43:38.589Z,68.20
2018-10-05T13:46:07.081Z,66.60
2018-10-05T13:48:34.657Z,66.60
2018-10-05T13:51:05.305Z,66.40
2018-10-05T13:53:32.859Z,65.90
2018-10-05T13:56:00.453Z,65.30
2018-10-05T13:58:28.009Z,65.00
2018-10-05T14:00:55.592Z,63.40
2018-10-05T14:03:23.151Z,63.10
2018-10-05T14:05:50.785Z,62.90
2018-10-05T14:08:18.413Z,60.50
2018-10-05T14:10:46.050Z,58.50
2018-10-05T14:13:14.129Z,55.80
2018-10-05T14:15:41.930Z,52.70
2018-10-05T14:18:09.499Z,47.40
2018-10-05T14:20:37.709Z,43.20
2018-10-05T14:23:05.293Z,38.90
2018-10-05T14:25:32.903Z,36.60
2018-10-05T14:28:01.338Z,34.50
2018-10-05T14:30:28.914Z,31.90
2018-10-05T14:32:56.498Z,30.90
2018-10-05T14:35:24.057Z,29.80
2018-10-05T14:37:52.143Z,28.70
2018-10-05T14:40:19.870Z,28.70
2018-10-05T14:42:47.563Z,28.10
2018-10-05T14:45:15.145Z,27.70
2018-10-05T14:47:43.289Z,27.00
2018-10-05T14:50:10.937Z,28.20
2018-10-05T14:52:38.543Z,28.00
2018-10-05T14:55:06.587Z,28.10
2018-10-05T14:57:34.259Z,28.50
2018-10-05T15:00:01.770Z,28.10
2018-10-05T15:02:29.377Z,27.90
2018-10-05T15:04:57.014Z,28.00
2018-10-05T15:07:24.650Z,28.00
2018-10-05T15:09:55.247Z,29.20
2018-10-05T15:12:22.874Z,29.40
2018-10-05T15:14:50.449Z,29.40
2018-10-05T15:17:18.045Z,30.00
2018-10-05T15:19:45.829Z,29.80
2018-10-05T15:22:13.454Z,29.70
2018-10-05T15:24:41.069Z,29.50
2018-10-05T15:27:09.238Z,30.20
2018-10-05T15:29:36.887Z,30.40
2018-10-05T15:32:04.766Z,30.00
2018-10-05T15:34:32.325Z,30.00
2018-10-05T15:37:01.529Z,30.40
2018-10-05T15:39:29.114Z,29.70
2018-10-05T15:41:56.677Z,30.40
2018-10-05T15:44:25.240Z,30.60
2018-10-05T15:46:55.541Z,31.60
2018-10-05T15:49:23.141Z,32.20
2018-10-05T15:51:50.735Z,31.70
2018-10-05T15:54:18.333Z,32.40
2018-10-05T15:56:46.007Z,33.00
2018-10-05T15:59:13.719Z,33.20
2018-10-05T16:01:41.273Z,34.90
2018-10-05T16:04:08.833Z,34.30
2018-10-05T16:06:36.409Z,34.80
2018-10-05T16:09:05.557Z,35.40
2018-10-05T16:11:33.979Z,35.50
2018-10-05T16:14:01.806Z,35.70
2018-10-05T16:16:30.290Z,36.60
2018-10-05T16:18:57.876Z,37.00
2018-10-05T16:21:25.433Z,36.80
2018-10-05T16:23:53.657Z,36.90
2018-10-05T16:26:21.399Z,37.00
2018-10-05T16:28:49.997Z,38.30
2018-10-05T16:31:17.577Z,38.40
2018-10-05T16:33:48.024Z,41.20
2018-10-05T16:36:16.872Z,44.70
2018-10-05T16:38:44.465Z,47.80
2018-10-05T16:41:12.145Z,51.70
2018-10-05T16:43:40.550Z,55.10
2018-10-05T16:46:08.234Z,59.50
2018-10-05T16:48:35.797Z,66.00
2018-10-05T16:51:03.483Z,71.10
2018-10-05T16:53:31.075Z,74.60
2018-10-05T16:55:58.632Z,78.50
2018-10-05T16:58:26.181Z,81.80
2018-10-05T17:00:53.767Z,84.60
2018-10-05T17:03:21.329Z,86.10
2018-10-05T17:05:48.869Z,87.60
2018-10-05T17:08:18.184Z,89.20
2018-10-05T17:10:45.899Z,90.10
2018-10-05T17:13:13.463Z,90.70
2018-10-05T17:15:41.061Z,91.40
2018-10-05T17:18:08.651Z,92.30
2018-10-05T17:20:36.266Z,92.50
2018-10-05T17:23:03.905Z,93.50
2018-10-05T17:25:31.601Z,93.80
2018-10-05T17:27:59.148Z,94.20
2018-10-05T17:30:26.759Z,94.30
2018-10-05T17:32:54.427Z,94.70
2018-10-05T17:35:22.021Z,94.90
2018-10-05T17:37:49.615Z,95.10
2018-10-05T17:40:17.322Z,95.40
2018-10-05T17:42:44.886Z,95.60
2018-10-05T17:45:12.566Z,95.70
2018-10-05T17:47:40.122Z,96.00
2018-10-05T17:50:07.875Z,96.10
2018-10-05T17:52:36.233Z,96.20
2018-10-05T17:55:03.919Z,96.60
2018-10-05T17:57:31.842Z,96.70
2018-10-05T18:00:00.173Z,96.90
2018-10-05T18:02:27.810Z,97.10
2018-10-05T18:04:55.465Z,97.10
2018-10-05T18:07:24.953Z,97.50
2018-10-05T18:09:52.541Z,97.80
2018-10-05T18:12:20.160Z,97.90
2018-10-05T18:14:47.758Z,98.00
2018-10-05T18:17:15.276Z,98.20
2018-10-05T18:19:43.620Z,98.50
2018-10-05T18:22:11.279Z,98.70
2018-10-05T18:24:39.697Z,99.10
2018-10-05T18:27:07.410Z,99.40
2018-10-05T18:29:35.163Z,99.80
2018-10-05T18:32:02.950Z,99.90
2018-10-05T18:34:30.522Z,99.90
2018-10-05T18:36:58.387Z,99.90
2018-10-05T18:39:25.989Z,99.90
2018-10-05T18:41:53.574Z,99.90
2018-10-05T18:44:21.268Z,99.90
2018-10-05T18:46:48.822Z,99.90
2018-10-05T18:49:16.366Z,99.90
2018-10-05T18:51:46.833Z,99.90
2018-10-05T18:54:14.381Z,99.90
2018-10-05T18:56:53.173Z,99.90
2018-10-05T18:59:21.201Z,99.90
2018-10-05T19:01:48.788Z,99.90
2018-10-05T19:04:16.335Z,99.90
2018-10-05T19:06:43.938Z,99.90
2018-10-05T19:09:11.746Z,99.90
2018-10-05T19:11:39.304Z,99.90
2018-10-05T19:14:06.898Z,99.90
2018-10-05T19:16:34.510Z,99.90
2018-10-05T19:19:02.249Z,99.90
2018-10-05T19:21:29.837Z,99.90
2018-10-05T19:23:57.421Z,99.90
2018-10-05T19:26:25.234Z,99.90
2018-10-05T19:28:52.754Z,99.90
2018-10-05T19:31:20.729Z,99.90
2018-10-05T19:33:48.274Z,99.90
2018-10-05T19:36:15.948Z,99.90
2018-10-05T19:38:43.449Z,99.90
2018-10-05T19:41:11.074Z,99.90
2018-10-05T19:43:38.665Z,99.90
2018-10-05T19:46:06.311Z,99.90
2018-10-05T19:48:33.873Z,99.90
2018-10-05T19:51:01.990Z,99.90
2018-10-05T19:54:32.304Z,99.90
2018-10-05T19:56:59.900Z,99.90
2018-10-05T19:59:27.464Z,99.90
2018-10-05T20:01:55.223Z,99.90
2018-10-05T20:04:22.871Z,99.90
2018-10-05T20:06:50.449Z,99.90
2018-10-05T20:09:18.203Z,99.90
2018-10-05T20:11:45.925Z,99.90
2018-10-05T20:14:13.471Z,99.90
2018-10-05T20:16:41.042Z,99.90
2018-10-05T20:19:08.653Z,99.90
2018-10-05T20:21:36.226Z,99.90
2018-10-05T20:24:03.833Z,99.90
2018-10-05T20:26:31.675Z,99.90
2018-10-05T20:28:59.270Z,99.90
2018-10-05T20:31:26.861Z,99.90
2018-10-05T20:33:54.445Z,99.90
2018-10-05T20:36:24.256Z,99.90
2018-10-05T20:38:52.438Z,99.90
2018-10-05T20:41:20.589Z,99.90
2018-10-05T20:43:48.190Z,99.90
2018-10-05T20:46:16.454Z,99.90
2018-10-05T20:48:44.744Z,99.90
2018-10-05T20:51:12.975Z,99.90
2018-10-05T20:53:41.273Z,99.90
2018-10-05T20:56:09.643Z,99.90
2018-10-05T20:58:37.817Z,99.90
2018-10-05T21:01:06.117Z,99.90
2018-10-05T21:03:34.310Z,99.90
2018-10-05T21:06:02.169Z,99.90
2018-10-05T21:08:29.925Z,99.90
2018-10-05T21:10:57.523Z,99.90
2018-10-05T21:13:25.123Z,99.90
2018-10-05T21:15:52.669Z,99.90
2018-10-05T21:18:20.250Z,99.90
2018-10-05T21:20:47.811Z,99.90
2018-10-05T21:23:15.405Z,99.90
2018-10-05T21:25:42.965Z,99.90
2018-10-05T21:28:10.570Z,99.90
2018-10-05T21:30:38.133Z,99.90
2018-10-05T21:33:06.509Z,99.90
2018-10-05T21:35:34.062Z,99.90
2018-10-05T21:38:01.712Z,99.90
2018-10-05T21:40:29.265Z,99.90
2018-10-05T21:42:56.849Z,99.90
2018-10-05T21:45:24.453Z,99.90
2018-10-05T21:47:52.057Z,99.90
2018-10-05T21:50:21.153Z,99.90
2018-10-05T21:52:48.753Z,99.90
2018-10-05T21:55:16.759Z,99.90
2018-10-05T21:57:44.810Z,99.90
2018-10-05T22:00:12.488Z,99.90
2018-10-05T22:02:40.624Z,99.90
2018-10-05T22:05:08.792Z,99.90
2018-10-05T22:07:37.007Z,99.90
2018-10-05T22:10:05.725Z,99.90
2018-10-05T22:12:33.305Z,99.90
2018-10-05T22:15:00.909Z,99.90
2018-10-05T22:17:28.555Z,99.90
2018-10-05T22:19:56.285Z,99.90
2018-10-05T22:22:24.617Z,99.90
2018-10-05T22:24:52.820Z,99.90
2018-10-05T22:27:20.397Z,99.90
2018-10-05T22:29:49.734Z,99.90
2018-10-05T22:32:17.884Z,99.90
2018-10-05T22:34:46.045Z,99.90
2018-10-05T22:37:13.623Z,99.90
2018-10-05T22:39:41.225Z,99.90
2018-10-05T22:42:09.600Z,99.90
2018-10-05T22:44:37.813Z,99.90
2018-10-05T22:47:05.916Z,99.90
2018-10-05T22:49:35.482Z,99.90
2018-10-05T22:52:04.240Z,99.90
2018-10-05T22:54:32.096Z,99.90
2018-10-05T22:57:01.696Z,99.90
2018-10-05T22:59:29.372Z,99.90
2018-10-05T23:01:59.041Z,99.90
2018-10-05T23:04:26.708Z,99.90
2018-10-05T23:06:54.260Z,99.90
2018-10-05T23:09:22.981Z,99.90
2018-10-05T23:11:50.549Z,99.90
2018-10-05T23:14:18.114Z,99.90
2018-10-05T23:16:47.672Z,99.90
2018-10-05T23:19:15.405Z,99.90
2018-10-05T23:21:43.029Z,99.90
2018-10-05T23:24:12.340Z,99.90
2018-10-05T23:26:40.014Z,99.90
2018-10-05T23:29:07.601Z,99.90
2018-10-05T23:31:35.182Z,99.90
2018-10-05T23:34:02.777Z,99.90
2018-10-05T23:36:31.318Z,99.90
2018-10-05T23:38:59.613Z,99.90
2018-10-05T23:41:27.166Z,99.90
2018-10-05T23:43:54.813Z,99.90
2018-10-05T23:46:22.453Z,99.90
2018-10-05T23:48:50.038Z,99.90
2018-10-05T23:51:18.321Z,99.90
2018-10-05T23:53:46.770Z,99.90
2018-10-05T23:56:14.394Z,99.90
2018-10-05T23:58:42.137Z,99.90
